sensor_id;sensor_type;location;lat;lon;timestamp;P1;durP1;ratioP1;P2;durP2;ratioP2
15938;SDS011;8068;51.322;9.450;2023-03-04T00:01:52;11.13;;;9.70;;
15938;SDS011;8068;51.322;9.450;2023-03-04T00:04:18;14.30;;;10.87;;
15938;SDS011;8068;51.322;9.450;2023-03-04T00:06:45;14.97;;;9.50;;
15938;SDS011;8068;51.322;9.450;2023-03-04T00:09:11;15.40;;;10.80;;
15938;SDS011;8068;51.322;9.450;2023-03-04T00:11:37;16.97;;;10.80;;
15938;SDS011;8068;51.322;9.450;2023-03-04T00:14:03;12.20;;;9.70;;
15938;SDS011;8068;51.322;9.450;2023-03-04T00:16:29;12.80;;;9.90;;
15938;SDS011;8068;51.322;9.450;2023-03-04T00:18:55;10.30;;;9.20;;
15938;SDS011;8068;51.322;9.450;2023-03-04T00:21:22;10.00;;;8.90;;
15938;SDS011;8068;51.322;9.450;2023-03-04T00:23:48;15.33;;;9.50;;
15938;SDS011;8068;51.322;9.450;2023-03-04T00:26:15;15.47;;;10.23;;
15938;SDS011;8068;51.322;9.450;2023-03-04T00:28:41;13.03;;;9.37;;
15938;SDS011;8068;51.322;9.450;2023-03-04T00:31:07;13.37;;;8.93;;
15938;SDS011;8068;51.322;9.450;2023-03-04T00:33:34;12.33;;;9.10;;
15938;SDS011;8068;51.322;9.450;2023-03-04T00:36:00;12.00;;;9.40;;
15938;SDS011;8068;51.322;9.450;2023-03-04T00:38:26;9.97;;;9.00;;
15938;SDS011;8068;51.322;9.450;2023-03-04T00:40:52;9.90;;;8.57;;
15938;SDS011;8068;51.322;9.450;2023-03-04T00:43:19;11.73;;;9.10;;
15938;SDS011;8068;51.322;9.450;2023-03-04T00:45:45;10.73;;;8.77;;
15938;SDS011;8068;51.322;9.450;2023-03-04T00:48:11;11.87;;;9.13;;
15938;SDS011;8068;51.322;9.450;2023-03-04T00:50:37;10.13;;;8.17;;
15938;SDS011;8068;51.322;9.450;2023-03-04T00:53:04;10.40;;;8.40;;
15938;SDS011;8068;51.322;9.450;2023-03-04T00:55:30;8.80;;;7.80;;
15938;SDS011;8068;51.322;9.450;2023-03-04T00:57:56;10.60;;;8.80;;
15938;SDS011;8068;51.322;9.450;2023-03-04T01:00:22;19.50;;;8.73;;
15938;SDS011;8068;51.322;9.450;2023-03-04T01:02:48;13.13;;;8.73;;
15938;SDS011;8068;51.322;9.450;2023-03-04T01:05:15;10.30;;;8.30;;
15938;SDS011;8068;51.322;9.450;2023-03-04T01:07:41;9.37;;;8.37;;
15938;SDS011;8068;51.322;9.450;2023-03-04T01:10:07;12.90;;;8.73;;
15938;SDS011;8068;51.322;9.450;2023-03-04T01:12:34;10.30;;;8.67;;
15938;SDS011;8068;51.322;9.450;2023-03-04T01:15:01;11.90;;;8.87;;
15938;SDS011;8068;51.322;9.450;2023-03-04T01:17:27;14.47;;;9.07;;
15938;SDS011;8068;51.322;9.450;2023-03-04T01:19:53;13.67;;;8.43;;
15938;SDS011;8068;51.322;9.450;2023-03-04T01:22:19;12.03;;;7.90;;
15938;SDS011;8068;51.322;9.450;2023-03-04T01:24:45;10.93;;;7.60;;
15938;SDS011;8068;51.322;9.450;2023-03-04T01:27:12;10.20;;;6.80;;
15938;SDS011;8068;51.322;9.450;2023-03-04T01:29:38;12.90;;;8.37;;
15938;SDS011;8068;51.322;9.450;2023-03-04T01:32:04;22.37;;;8.07;;
15938;SDS011;8068;51.322;9.450;2023-03-04T01:34:30;17.03;;;7.17;;
15938;SDS011;8068;51.322;9.450;2023-03-04T01:36:56;11.90;;;7.30;;
15938;SDS011;8068;51.322;9.450;2023-03-04T01:39:22;18.30;;;8.27;;
15938;SDS011;8068;51.322;9.450;2023-03-04T01:41:49;10.17;;;7.33;;
15938;SDS011;8068;51.322;9.450;2023-03-04T01:44:15;13.33;;;7.17;;
15938;SDS011;8068;51.322;9.450;2023-03-04T01:46:43;21.77;;;7.97;;
15938;SDS011;8068;51.322;9.450;2023-03-04T01:49:12;14.70;;;8.03;;
15938;SDS011;8068;51.322;9.450;2023-03-04T01:51:39;13.73;;;7.20;;
15938;SDS011;8068;51.322;9.450;2023-03-04T01:54:08;17.37;;;7.13;;
15938;SDS011;8068;51.322;9.450;2023-03-04T01:56:35;20.30;;;6.70;;
15938;SDS011;8068;51.322;9.450;2023-03-04T01:59:09;14.43;;;6.20;;
15938;SDS011;8068;51.322;9.450;2023-03-04T02:01:39;15.50;;;6.00;;
15938;SDS011;8068;51.322;9.450;2023-03-04T02:04:06;16.53;;;7.50;;
15938;SDS011;8068;51.322;9.450;2023-03-04T02:06:33;20.60;;;7.30;;
15938;SDS011;8068;51.322;9.450;2023-03-04T02:09:01;17.27;;;7.10;;
15938;SDS011;8068;51.322;9.450;2023-03-04T02:11:28;11.93;;;5.97;;
15938;SDS011;8068;51.322;9.450;2023-03-04T02:13:55;11.73;;;6.37;;
15938;SDS011;8068;51.322;9.450;2023-03-04T02:16:21;10.03;;;5.83;;
15938;SDS011;8068;51.322;9.450;2023-03-04T02:18:47;10.73;;;6.13;;
15938;SDS011;8068;51.322;9.450;2023-03-04T02:21:18;17.73;;;7.10;;
15938;SDS011;8068;51.322;9.450;2023-03-04T02:26:35;14.50;;;7.00;;
15938;SDS011;8068;51.322;9.450;2023-03-04T02:29:02;16.10;;;6.87;;
15938;SDS011;8068;51.322;9.450;2023-03-04T02:31:30;13.90;;;6.53;;
15938;SDS011;8068;51.322;9.450;2023-03-04T02:34:05;14.23;;;6.90;;
15938;SDS011;8068;51.322;9.450;2023-03-04T02:36:42;15.10;;;6.93;;
15938;SDS011;8068;51.322;9.450;2023-03-04T02:39:31;12.90;;;6.60;;
15938;SDS011;8068;51.322;9.450;2023-03-04T02:41:57;16.77;;;7.30;;
15938;SDS011;8068;51.322;9.450;2023-03-04T02:46:54;17.03;;;7.23;;
15938;SDS011;8068;51.322;9.450;2023-03-04T02:49:21;11.57;;;6.93;;
15938;SDS011;8068;51.322;9.450;2023-03-04T02:51:51;16.20;;;7.20;;
15938;SDS011;8068;51.322;9.450;2023-03-04T02:54:19;16.90;;;7.10;;
15938;SDS011;8068;51.322;9.450;2023-03-04T02:56:47;11.50;;;6.37;;
15938;SDS011;8068;51.322;9.450;2023-03-04T02:59:15;12.27;;;6.47;;
15938;SDS011;8068;51.322;9.450;2023-03-04T03:01:42;17.90;;;6.37;;
15938;SDS011;8068;51.322;9.450;2023-03-04T03:04:08;21.30;;;6.30;;
15938;SDS011;8068;51.322;9.450;2023-03-04T03:06:34;11.77;;;5.40;;
15938;SDS011;8068;51.322;9.450;2023-03-04T03:09:01;22.07;;;5.90;;
15938;SDS011;8068;51.322;9.450;2023-03-04T03:11:28;15.90;;;5.30;;
15938;SDS011;8068;51.322;9.450;2023-03-04T03:13:54;13.00;;;5.70;;
15938;SDS011;8068;51.322;9.450;2023-03-04T03:16:20;15.33;;;5.33;;
15938;SDS011;8068;51.322;9.450;2023-03-04T03:18:47;10.73;;;5.03;;
15938;SDS011;8068;51.322;9.450;2023-03-04T03:21:13;9.53;;;5.70;;
15938;SDS011;8068;51.322;9.450;2023-03-04T03:23:39;11.93;;;5.10;;
15938;SDS011;8068;51.322;9.450;2023-03-04T03:26:05;20.97;;;5.67;;
15938;SDS011;8068;51.322;9.450;2023-03-04T03:28:31;9.43;;;4.93;;
15938;SDS011;8068;51.322;9.450;2023-03-04T03:30:57;26.70;;;5.40;;
15938;SDS011;8068;51.322;9.450;2023-03-04T03:33:23;12.40;;;5.40;;
15938;SDS011;8068;51.322;9.450;2023-03-04T03:35:50;17.63;;;5.90;;
15938;SDS011;8068;51.322;9.450;2023-03-04T03:38:16;13.60;;;5.50;;
15938;SDS011;8068;51.322;9.450;2023-03-04T03:40:42;18.77;;;5.70;;
15938;SDS011;8068;51.322;9.450;2023-03-04T03:43:08;19.50;;;5.33;;
15938;SDS011;8068;51.322;9.450;2023-03-04T03:45:34;12.63;;;5.30;;
15938;SDS011;8068;51.322;9.450;2023-03-04T03:48:01;14.47;;;5.13;;
15938;SDS011;8068;51.322;9.450;2023-03-04T03:50:27;16.53;;;5.57;;
15938;SDS011;8068;51.322;9.450;2023-03-04T03:52:54;17.57;;;5.90;;
15938;SDS011;8068;51.322;9.450;2023-03-04T03:55:20;17.23;;;5.80;;
15938;SDS011;8068;51.322;9.450;2023-03-04T03:57:46;15.70;;;5.37;;
15938;SDS011;8068;51.322;9.450;2023-03-04T04:00:13;12.20;;;5.60;;
15938;SDS011;8068;51.322;9.450;2023-03-04T04:02:41;15.57;;;5.83;;
15938;SDS011;8068;51.322;9.450;2023-03-04T04:05:07;17.20;;;5.60;;
15938;SDS011;8068;51.322;9.450;2023-03-04T04:07:35;16.27;;;5.63;;
15938;SDS011;8068;51.322;9.450;2023-03-04T04:10:02;17.13;;;5.37;;
15938;SDS011;8068;51.322;9.450;2023-03-04T04:12:29;14.30;;;4.90;;
15938;SDS011;8068;51.322;9.450;2023-03-04T04:14:55;12.00;;;4.87;;
15938;SDS011;8068;51.322;9.450;2023-03-04T04:17:21;8.83;;;4.80;;
15938;SDS011;8068;51.322;9.450;2023-03-04T04:19:47;14.93;;;5.40;;
15938;SDS011;8068;51.322;9.450;2023-03-04T04:22:14;15.83;;;4.70;;
15938;SDS011;8068;51.322;9.450;2023-03-04T04:24:42;14.97;;;5.43;;
15938;SDS011;8068;51.322;9.450;2023-03-04T04:27:08;18.10;;;5.30;;
15938;SDS011;8068;51.322;9.450;2023-03-04T04:29:34;11.97;;;4.50;;
15938;SDS011;8068;51.322;9.450;2023-03-04T04:32:00;10.67;;;4.27;;
15938;SDS011;8068;51.322;9.450;2023-03-04T04:34:27;20.17;;;5.23;;
15938;SDS011;8068;51.322;9.450;2023-03-04T04:36:53;19.43;;;4.40;;
15938;SDS011;8068;51.322;9.450;2023-03-04T04:39:19;10.27;;;3.80;;
15938;SDS011;8068;51.322;9.450;2023-03-04T04:41:45;14.70;;;3.80;;
15938;SDS011;8068;51.322;9.450;2023-03-04T04:44:11;14.40;;;4.00;;
15938;SDS011;8068;51.322;9.450;2023-03-04T04:46:38;12.30;;;3.60;;
15938;SDS011;8068;51.322;9.450;2023-03-04T04:49:05;15.90;;;4.60;;
15938;SDS011;8068;51.322;9.450;2023-03-04T04:51:32;17.00;;;4.60;;
15938;SDS011;8068;51.322;9.450;2023-03-04T04:53:59;15.63;;;4.63;;
15938;SDS011;8068;51.322;9.450;2023-03-04T04:56:26;11.00;;;3.53;;
15938;SDS011;8068;51.322;9.450;2023-03-04T04:58:53;12.93;;;4.30;;
15938;SDS011;8068;51.322;9.450;2023-03-04T05:01:22;12.30;;;4.40;;
15938;SDS011;8068;51.322;9.450;2023-03-04T05:03:48;21.00;;;4.43;;
15938;SDS011;8068;51.322;9.450;2023-03-04T05:06:15;11.67;;;3.80;;
15938;SDS011;8068;51.322;9.450;2023-03-04T05:08:41;16.80;;;3.70;;
15938;SDS011;8068;51.322;9.450;2023-03-04T05:11:07;16.20;;;4.10;;
15938;SDS011;8068;51.322;9.450;2023-03-04T05:13:34;11.93;;;3.50;;
15938;SDS011;8068;51.322;9.450;2023-03-04T05:16:00;17.00;;;4.00;;
15938;SDS011;8068;51.322;9.450;2023-03-04T05:18:27;11.17;;;3.90;;
15938;SDS011;8068;51.322;9.450;2023-03-04T05:20:54;13.07;;;3.70;;
15938;SDS011;8068;51.322;9.450;2023-03-04T05:23:25;5.73;;;3.60;;
15938;SDS011;8068;51.322;9.450;2023-03-04T05:25:52;8.10;;;3.73;;
15938;SDS011;8068;51.322;9.450;2023-03-04T05:28:19;22.23;;;4.10;;
15938;SDS011;8068;51.322;9.450;2023-03-04T05:30:45;8.17;;;3.27;;
15938;SDS011;8068;51.322;9.450;2023-03-04T05:33:12;13.63;;;4.30;;
15938;SDS011;8068;51.322;9.450;2023-03-04T05:35:40;16.83;;;4.90;;
15938;SDS011;8068;51.322;9.450;2023-03-04T05:38:07;17.53;;;3.63;;
15938;SDS011;8068;51.322;9.450;2023-03-04T05:40:35;6.93;;;3.70;;
15938;SDS011;8068;51.322;9.450;2023-03-04T05:43:01;11.33;;;3.50;;
15938;SDS011;8068;51.322;9.450;2023-03-04T05:45:28;10.00;;;4.00;;
15938;SDS011;8068;51.322;9.450;2023-03-04T05:47:54;9.07;;;2.90;;
15938;SDS011;8068;51.322;9.450;2023-03-04T05:50:21;10.13;;;3.73;;
15938;SDS011;8068;51.322;9.450;2023-03-04T05:52:47;10.63;;;4.27;;
15938;SDS011;8068;51.322;9.450;2023-03-04T05:55:14;11.07;;;3.50;;
15938;SDS011;8068;51.322;9.450;2023-03-04T05:57:41;11.60;;;3.90;;
15938;SDS011;8068;51.322;9.450;2023-03-04T06:00:07;12.17;;;3.57;;
15938;SDS011;8068;51.322;9.450;2023-03-04T06:02:34;18.53;;;3.93;;
15938;SDS011;8068;51.322;9.450;2023-03-04T06:05:01;11.50;;;4.00;;
15938;SDS011;8068;51.322;9.450;2023-03-04T06:07:28;10.70;;;3.80;;
15938;SDS011;8068;51.322;9.450;2023-03-04T06:09:54;10.93;;;4.17;;
15938;SDS011;8068;51.322;9.450;2023-03-04T06:12:20;14.70;;;4.13;;
15938;SDS011;8068;51.322;9.450;2023-03-04T06:14:47;13.80;;;4.00;;
15938;SDS011;8068;51.322;9.450;2023-03-04T06:17:13;10.07;;;3.80;;
15938;SDS011;8068;51.322;9.450;2023-03-04T06:19:39;8.70;;;2.87;;
15938;SDS011;8068;51.322;9.450;2023-03-04T06:22:08;11.23;;;3.20;;
15938;SDS011;8068;51.322;9.450;2023-03-04T06:24:35;9.07;;;3.93;;
15938;SDS011;8068;51.322;9.450;2023-03-04T06:27:01;8.10;;;3.60;;
15938;SDS011;8068;51.322;9.450;2023-03-04T06:29:27;5.67;;;3.30;;
15938;SDS011;8068;51.322;9.450;2023-03-04T06:31:53;9.10;;;3.70;;
15938;SDS011;8068;51.322;9.450;2023-03-04T06:34:20;10.93;;;3.30;;
15938;SDS011;8068;51.322;9.450;2023-03-04T06:36:46;5.40;;;3.40;;
15938;SDS011;8068;51.322;9.450;2023-03-04T06:39:12;9.37;;;3.57;;
15938;SDS011;8068;51.322;9.450;2023-03-04T06:41:38;7.70;;;3.40;;
15938;SDS011;8068;51.322;9.450;2023-03-04T06:44:05;9.13;;;4.20;;
15938;SDS011;8068;51.322;9.450;2023-03-04T06:46:34;11.50;;;4.07;;
15938;SDS011;8068;51.322;9.450;2023-03-04T06:49:01;16.30;;;5.67;;
15938;SDS011;8068;51.322;9.450;2023-03-04T06:51:27;10.77;;;4.63;;
15938;SDS011;8068;51.322;9.450;2023-03-04T06:53:53;6.80;;;3.00;;
15938;SDS011;8068;51.322;9.450;2023-03-04T06:56:19;6.00;;;3.20;;
15938;SDS011;8068;51.322;9.450;2023-03-04T06:58:45;5.90;;;3.20;;
15938;SDS011;8068;51.322;9.450;2023-03-04T07:03:44;4.77;;;2.90;;
15938;SDS011;8068;51.322;9.450;2023-03-04T07:06:12;12.87;;;3.13;;
15938;SDS011;8068;51.322;9.450;2023-03-04T07:08:39;10.40;;;3.33;;
15938;SDS011;8068;51.322;9.450;2023-03-04T07:11:06;12.30;;;3.37;;
15938;SDS011;8068;51.322;9.450;2023-03-04T07:13:32;6.03;;;3.33;;
15938;SDS011;8068;51.322;9.450;2023-03-04T07:16:00;3.70;;;2.47;;
15938;SDS011;8068;51.322;9.450;2023-03-04T07:18:26;15.00;;;3.00;;
15938;SDS011;8068;51.322;9.450;2023-03-04T07:20:52;9.50;;;2.33;;
15938;SDS011;8068;51.322;9.450;2023-03-04T07:23:19;10.90;;;2.77;;
15938;SDS011;8068;51.322;9.450;2023-03-04T07:25:45;7.70;;;2.93;;
15938;SDS011;8068;51.322;9.450;2023-03-04T07:28:13;14.97;;;3.53;;
15938;SDS011;8068;51.322;9.450;2023-03-04T07:30:40;4.27;;;2.40;;
15938;SDS011;8068;51.322;9.450;2023-03-04T07:33:06;8.27;;;2.73;;
15938;SDS011;8068;51.322;9.450;2023-03-04T07:35:32;9.83;;;2.23;;
15938;SDS011;8068;51.322;9.450;2023-03-04T07:37:58;6.73;;;2.17;;
15938;SDS011;8068;51.322;9.450;2023-03-04T07:40:24;6.43;;;2.33;;
15938;SDS011;8068;51.322;9.450;2023-03-04T07:42:51;11.40;;;3.33;;
15938;SDS011;8068;51.322;9.450;2023-03-04T07:45:19;8.43;;;2.10;;
15938;SDS011;8068;51.322;9.450;2023-03-04T07:47:45;8.37;;;1.90;;
15938;SDS011;8068;51.322;9.450;2023-03-04T07:50:11;6.90;;;1.97;;
15938;SDS011;8068;51.322;9.450;2023-03-04T07:52:38;12.83;;;2.40;;
15938;SDS011;8068;51.322;9.450;2023-03-04T07:55:05;6.60;;;2.20;;
15938;SDS011;8068;51.322;9.450;2023-03-04T07:57:32;9.10;;;2.40;;
15938;SDS011;8068;51.322;9.450;2023-03-04T07:59:58;5.57;;;2.30;;
15938;SDS011;8068;51.322;9.450;2023-03-04T08:02:24;3.30;;;2.03;;
15938;SDS011;8068;51.322;9.450;2023-03-04T08:04:50;3.60;;;1.83;;
15938;SDS011;8068;51.322;9.450;2023-03-04T08:07:16;6.53;;;2.03;;
15938;SDS011;8068;51.322;9.450;2023-03-04T08:09:42;5.47;;;3.53;;
15938;SDS011;8068;51.322;9.450;2023-03-04T08:12:09;2.93;;;2.60;;
15938;SDS011;8068;51.322;9.450;2023-03-04T08:14:35;9.33;;;2.37;;
15938;SDS011;8068;51.322;9.450;2023-03-04T08:17:01;3.90;;;2.30;;
15938;SDS011;8068;51.322;9.450;2023-03-04T08:19:27;4.27;;;2.50;;
15938;SDS011;8068;51.322;9.450;2023-03-04T08:21:53;7.43;;;2.27;;
15938;SDS011;8068;51.322;9.450;2023-03-04T08:24:19;3.70;;;2.07;;
15938;SDS011;8068;51.322;9.450;2023-03-04T08:26:46;3.93;;;2.17;;
15938;SDS011;8068;51.322;9.450;2023-03-04T08:29:15;5.40;;;1.67;;
15938;SDS011;8068;51.322;9.450;2023-03-04T08:31:43;2.67;;;2.00;;
15938;SDS011;8068;51.322;9.450;2023-03-04T08:34:14;3.73;;;2.20;;
15938;SDS011;8068;51.322;9.450;2023-03-04T08:36:41;4.73;;;1.97;;
15938;SDS011;8068;51.322;9.450;2023-03-04T08:39:07;2.63;;;2.43;;
15938;SDS011;8068;51.322;9.450;2023-03-04T08:41:34;6.03;;;2.00;;
15938;SDS011;8068;51.322;9.450;2023-03-04T08:44:00;3.10;;;1.80;;
15938;SDS011;8068;51.322;9.450;2023-03-04T08:46:27;3.63;;;1.60;;
15938;SDS011;8068;51.322;9.450;2023-03-04T08:48:53;4.80;;;1.83;;
15938;SDS011;8068;51.322;9.450;2023-03-04T08:51:19;7.97;;;2.40;;
15938;SDS011;8068;51.322;9.450;2023-03-04T08:53:45;5.87;;;2.60;;
15938;SDS011;8068;51.322;9.450;2023-03-04T08:56:11;4.10;;;2.03;;
15938;SDS011;8068;51.322;9.450;2023-03-04T08:58:38;4.60;;;2.50;;
15938;SDS011;8068;51.322;9.450;2023-03-04T09:01:06;6.50;;;1.70;;
15938;SDS011;8068;51.322;9.450;2023-03-04T09:03:34;6.37;;;2.20;;
15938;SDS011;8068;51.322;9.450;2023-03-04T09:06:00;4.23;;;1.77;;
15938;SDS011;8068;51.322;9.450;2023-03-04T09:08:28;1.40;;;1.30;;
15938;SDS011;8068;51.322;9.450;2023-03-04T09:10:54;5.83;;;1.80;;
15938;SDS011;8068;51.322;9.450;2023-03-04T09:13:21;2.17;;;1.50;;
15938;SDS011;8068;51.322;9.450;2023-03-04T09:15:51;4.27;;;1.43;;
15938;SDS011;8068;51.322;9.450;2023-03-04T09:18:18;1.73;;;1.63;;
15938;SDS011;8068;51.322;9.450;2023-03-04T09:20:46;3.87;;;1.43;;
15938;SDS011;8068;51.322;9.450;2023-03-04T09:23:12;1.70;;;1.60;;
15938;SDS011;8068;51.322;9.450;2023-03-04T09:25:38;2.30;;;1.20;;
15938;SDS011;8068;51.322;9.450;2023-03-04T09:28:05;3.40;;;1.07;;
15938;SDS011;8068;51.322;9.450;2023-03-04T09:30:32;1.90;;;0.77;;
15938;SDS011;8068;51.322;9.450;2023-03-04T09:32:59;2.03;;;1.00;;
15938;SDS011;8068;51.322;9.450;2023-03-04T09:35:26;3.83;;;1.50;;
15938;SDS011;8068;51.322;9.450;2023-03-04T09:37:55;2.10;;;1.73;;
15938;SDS011;8068;51.322;9.450;2023-03-04T09:40:24;5.03;;;1.60;;
15938;SDS011;8068;51.322;9.450;2023-03-04T09:42:54;2.53;;;1.70;;
15938;SDS011;8068;51.322;9.450;2023-03-04T09:45:26;4.23;;;1.73;;
15938;SDS011;8068;51.322;9.450;2023-03-04T09:47:57;2.20;;;1.60;;
15938;SDS011;8068;51.322;9.450;2023-03-04T09:50:23;1.60;;;1.30;;
15938;SDS011;8068;51.322;9.450;2023-03-04T09:58:02;2.40;;;1.73;;
15938;SDS011;8068;51.322;9.450;2023-03-04T10:00:35;3.07;;;2.13;;
15938;SDS011;8068;51.322;9.450;2023-03-04T10:05:31;3.83;;;1.57;;
15938;SDS011;8068;51.322;9.450;2023-03-04T10:08:07;7.00;;;2.93;;
15938;SDS011;8068;51.322;9.450;2023-03-04T10:10:56;6.90;;;1.73;;
15938;SDS011;8068;51.322;9.450;2023-03-04T10:13:37;3.73;;;1.80;;
15938;SDS011;8068;51.322;9.450;2023-03-04T10:16:05;6.13;;;1.80;;
15938;SDS011;8068;51.322;9.450;2023-03-04T10:18:38;3.53;;;1.57;;
15938;SDS011;8068;51.322;9.450;2023-03-04T10:21:13;2.67;;;1.40;;
15938;SDS011;8068;51.322;9.450;2023-03-04T10:23:45;3.30;;;1.57;;
15938;SDS011;8068;51.322;9.450;2023-03-04T10:26:13;2.37;;;1.60;;
15938;SDS011;8068;51.322;9.450;2023-03-04T10:28:41;4.73;;;1.90;;
15938;SDS011;8068;51.322;9.450;2023-03-04T10:33:34;8.73;;;2.17;;
15938;SDS011;8068;51.322;9.450;2023-03-04T10:36:03;8.40;;;4.33;;
15938;SDS011;8068;51.322;9.450;2023-03-04T10:38:44;5.37;;;3.90;;
15938;SDS011;8068;51.322;9.450;2023-03-04T10:41:19;3.73;;;2.40;;
15938;SDS011;8068;51.322;9.450;2023-03-04T10:43:59;4.40;;;2.07;;
15938;SDS011;8068;51.322;9.450;2023-03-04T10:46:27;3.63;;;1.40;;
15938;SDS011;8068;51.322;9.450;2023-03-04T10:48:53;5.30;;;2.40;;
15938;SDS011;8068;51.322;9.450;2023-03-04T10:51:21;3.27;;;1.83;;
15938;SDS011;8068;51.322;9.450;2023-03-04T10:54:00;3.40;;;2.13;;
15938;SDS011;8068;51.322;9.450;2023-03-04T11:01:55;21.00;;;6.70;;
15938;SDS011;8068;51.322;9.450;2023-03-04T11:04:23;5.53;;;3.00;;
15938;SDS011;8068;51.322;9.450;2023-03-04T11:06:50;2.83;;;2.63;;
15938;SDS011;8068;51.322;9.450;2023-03-04T11:09:21;3.03;;;1.70;;
15938;SDS011;8068;51.322;9.450;2023-03-04T11:11:54;4.40;;;3.27;;
15938;SDS011;8068;51.322;9.450;2023-03-04T11:17:01;3.77;;;2.47;;
15938;SDS011;8068;51.322;9.450;2023-03-04T11:19:37;6.30;;;3.17;;
15938;SDS011;8068;51.322;9.450;2023-03-04T11:22:04;2.97;;;1.50;;
15938;SDS011;8068;51.322;9.450;2023-03-04T11:24:31;1.63;;;0.90;;
15938;SDS011;8068;51.322;9.450;2023-03-04T11:27:21;1.13;;;1.03;;
15938;SDS011;8068;51.322;9.450;2023-03-04T11:29:54;2.43;;;1.30;;
15938;SDS011;8068;51.322;9.450;2023-03-04T11:32:25;1.70;;;1.33;;
15938;SDS011;8068;51.322;9.450;2023-03-04T11:37:35;1.70;;;0.93;;
15938;SDS011;8068;51.322;9.450;2023-03-04T11:42:40;3.00;;;0.93;;
15938;SDS011;8068;51.322;9.450;2023-03-04T11:45:11;1.00;;;0.80;;
15938;SDS011;8068;51.322;9.450;2023-03-04T11:48:41;2.20;;;1.40;;
15938;SDS011;8068;51.322;9.450;2023-03-04T11:50:50;1.27;;;0.90;;
15938;SDS011;8068;51.322;9.450;2023-03-04T11:56:06;3.40;;;2.53;;
15938;SDS011;8068;51.322;9.450;2023-03-04T12:01:33;1.33;;;1.23;;
15938;SDS011;8068;51.322;9.450;2023-03-04T12:04:27;2.17;;;1.20;;
15938;SDS011;8068;51.322;9.450;2023-03-04T12:23:43;1.53;;;0.93;;
15938;SDS011;8068;51.322;9.450;2023-03-04T12:29:14;1.00;;;0.87;;
15938;SDS011;8068;51.322;9.450;2023-03-04T12:32:14;1.10;;;1.00;;
15938;SDS011;8068;51.322;9.450;2023-03-04T12:40:42;1.07;;;0.83;;
15938;SDS011;8068;51.322;9.450;2023-03-04T12:43:22;4.23;;;1.20;;
15938;SDS011;8068;51.322;9.450;2023-03-04T12:48:40;5.73;;;0.87;;
15938;SDS011;8068;51.322;9.450;2023-03-04T12:51:20;3.53;;;1.50;;
15938;SDS011;8068;51.322;9.450;2023-03-04T12:57:21;2.23;;;1.00;;
15938;SDS011;8068;51.322;9.450;2023-03-04T12:59:51;2.83;;;2.63;;
15938;SDS011;8068;51.322;9.450;2023-03-04T13:05:07;1.63;;;1.50;;
15938;SDS011;8068;51.322;9.450;2023-03-04T13:07:41;1.10;;;0.87;;
15938;SDS011;8068;51.322;9.450;2023-03-04T13:10:15;0.93;;;0.80;;
15938;SDS011;8068;51.322;9.450;2023-03-04T13:12:49;1.50;;;1.30;;
15938;SDS011;8068;51.322;9.450;2023-03-04T13:17:47;1.23;;;1.03;;
15938;SDS011;8068;51.322;9.450;2023-03-04T13:20:19;2.53;;;2.33;;
15938;SDS011;8068;51.322;9.450;2023-03-04T13:25:39;2.17;;;1.90;;
15938;SDS011;8068;51.322;9.450;2023-03-04T13:38:23;4.30;;;3.50;;
15938;SDS011;8068;51.322;9.450;2023-03-04T13:48:45;2.17;;;2.03;;
15938;SDS011;8068;51.322;9.450;2023-03-04T14:02:18;2.50;;;1.47;;
15938;SDS011;8068;51.322;9.450;2023-03-04T14:04:30;3.03;;;2.07;;
15938;SDS011;8068;51.322;9.450;2023-03-04T14:06:59;1.60;;;1.40;;
15938;SDS011;8068;51.322;9.450;2023-03-04T14:09:34;5.23;;;1.73;;
15938;SDS011;8068;51.322;9.450;2023-03-04T14:12:01;2.13;;;1.50;;
15938;SDS011;8068;51.322;9.450;2023-03-04T14:14:51;2.07;;;1.27;;
15938;SDS011;8068;51.322;9.450;2023-03-04T14:17:21;4.10;;;1.30;;
15938;SDS011;8068;51.322;9.450;2023-03-04T14:19:49;1.97;;;1.87;;
15938;SDS011;8068;51.322;9.450;2023-03-04T14:27:39;5.00;;;2.20;;
15938;SDS011;8068;51.322;9.450;2023-03-04T14:30:17;1.80;;;1.37;;
15938;SDS011;8068;51.322;9.450;2023-03-04T14:33:00;5.33;;;1.60;;
15938;SDS011;8068;51.322;9.450;2023-03-04T14:35:28;2.43;;;2.13;;
15938;SDS011;8068;51.322;9.450;2023-03-04T14:38:02;1.90;;;1.80;;
15938;SDS011;8068;51.322;9.450;2023-03-04T14:40:32;5.13;;;2.80;;
15938;SDS011;8068;51.322;9.450;2023-03-04T14:43:02;4.60;;;2.17;;
15938;SDS011;8068;51.322;9.450;2023-03-04T14:45:30;1.70;;;1.60;;
15938;SDS011;8068;51.322;9.450;2023-03-04T14:47:58;2.17;;;1.97;;
15938;SDS011;8068;51.322;9.450;2023-03-04T14:50:27;3.43;;;2.13;;
15938;SDS011;8068;51.322;9.450;2023-03-04T14:53:08;5.47;;;2.40;;
15938;SDS011;8068;51.322;9.450;2023-03-04T14:55:39;2.23;;;1.97;;
15938;SDS011;8068;51.322;9.450;2023-03-04T14:58:06;2.53;;;1.40;;
15938;SDS011;8068;51.322;9.450;2023-03-04T15:00:46;5.40;;;2.00;;
15938;SDS011;8068;51.322;9.450;2023-03-04T15:03:19;5.70;;;2.10;;
15938;SDS011;8068;51.322;9.450;2023-03-04T15:05:47;4.50;;;2.17;;
15938;SDS011;8068;51.322;9.450;2023-03-04T15:10:53;5.47;;;2.60;;
15938;SDS011;8068;51.322;9.450;2023-03-04T15:13:40;5.10;;;2.07;;
15938;SDS011;8068;51.322;9.450;2023-03-04T15:16:09;4.63;;;1.97;;
15938;SDS011;8068;51.322;9.450;2023-03-04T15:18:37;4.83;;;2.53;;
15938;SDS011;8068;51.322;9.450;2023-03-04T15:21:27;3.80;;;2.80;;
15938;SDS011;8068;51.322;9.450;2023-03-04T15:23:53;4.33;;;2.40;;
15938;SDS011;8068;51.322;9.450;2023-03-04T15:26:20;3.57;;;2.07;;
15938;SDS011;8068;51.322;9.450;2023-03-04T15:28:46;2.93;;;1.97;;
15938;SDS011;8068;51.322;9.450;2023-03-04T15:31:16;7.30;;;2.17;;
15938;SDS011;8068;51.322;9.450;2023-03-04T15:33:47;7.00;;;2.93;;
15938;SDS011;8068;51.322;9.450;2023-03-04T15:36:14;7.00;;;2.07;;
15938;SDS011;8068;51.322;9.450;2023-03-04T15:38:43;2.43;;;1.90;;
15938;SDS011;8068;51.322;9.450;2023-03-04T15:41:13;4.97;;;2.40;;
15938;SDS011;8068;51.322;9.450;2023-03-04T15:43:42;4.00;;;1.97;;
15938;SDS011;8068;51.322;9.450;2023-03-04T15:46:09;5.17;;;2.60;;
15938;SDS011;8068;51.322;9.450;2023-03-04T15:48:36;2.20;;;1.80;;
15938;SDS011;8068;51.322;9.450;2023-03-04T15:51:03;5.07;;;1.43;;
15938;SDS011;8068;51.322;9.450;2023-03-04T15:53:34;5.07;;;1.77;;
15938;SDS011;8068;51.322;9.450;2023-03-04T15:56:02;7.93;;;1.90;;
15938;SDS011;8068;51.322;9.450;2023-03-04T15:58:29;6.70;;;4.30;;
15938;SDS011;8068;51.322;9.450;2023-03-04T16:01:00;7.00;;;3.57;;
15938;SDS011;8068;51.322;9.450;2023-03-04T16:03:26;13.37;;;3.47;;
15938;SDS011;8068;51.322;9.450;2023-03-04T16:05:52;8.77;;;5.50;;
15938;SDS011;8068;51.322;9.450;2023-03-04T16:08:19;6.13;;;3.60;;
15938;SDS011;8068;51.322;9.450;2023-03-04T16:10:46;2.60;;;2.47;;
15938;SDS011;8068;51.322;9.450;2023-03-04T16:13:13;7.90;;;2.83;;
15938;SDS011;8068;51.322;9.450;2023-03-04T16:15:41;9.40;;;2.53;;
15938;SDS011;8068;51.322;9.450;2023-03-04T16:18:08;9.33;;;3.23;;
15938;SDS011;8068;51.322;9.450;2023-03-04T16:20:35;6.10;;;2.50;;
15938;SDS011;8068;51.322;9.450;2023-03-04T16:23:02;7.83;;;2.83;;
15938;SDS011;8068;51.322;9.450;2023-03-04T16:25:29;3.13;;;1.80;;
15938;SDS011;8068;51.322;9.450;2023-03-04T16:27:55;1.90;;;1.70;;
15938;SDS011;8068;51.322;9.450;2023-03-04T16:30:25;8.80;;;4.30;;
15938;SDS011;8068;51.322;9.450;2023-03-04T16:32:51;3.37;;;2.87;;
15938;SDS011;8068;51.322;9.450;2023-03-04T16:35:18;7.33;;;3.00;;
15938;SDS011;8068;51.322;9.450;2023-03-04T16:37:45;5.53;;;2.50;;
15938;SDS011;8068;51.322;9.450;2023-03-04T16:40:12;8.60;;;3.10;;
15938;SDS011;8068;51.322;9.450;2023-03-04T16:42:41;4.87;;;2.00;;
15938;SDS011;8068;51.322;9.450;2023-03-04T16:45:17;5.70;;;1.27;;
15938;SDS011;8068;51.322;9.450;2023-03-04T16:47:45;7.57;;;1.40;;
15938;SDS011;8068;51.322;9.450;2023-03-04T16:50:12;5.73;;;1.77;;
15938;SDS011;8068;51.322;9.450;2023-03-04T16:52:41;4.40;;;1.53;;
15938;SDS011;8068;51.322;9.450;2023-03-04T16:55:09;4.83;;;1.37;;
15938;SDS011;8068;51.322;9.450;2023-03-04T16:57:41;4.60;;;1.50;;